sensor_id;sensor_type;location;lat;lon;timestamp;temperature;humidity
36384;DHT22;22418;51.210;6.976;2023-05-07T00:00:29;16.20;99.90
36384;DHT22;22418;51.210;6.976;2023-05-07T00:03:00;16.20;99.90
36384;DHT22;22418;51.210;6.976;2023-05-07T00:05:31;16.20;99.90
36384;DHT22;22418;51.210;6.976;2023-05-07T00:08:02;16.30;99.90
36384;DHT22;22418;51.210;6.976;2023-05-07T00:10:33;16.30;99.90
36384;DHT22;22418;51.210;6.976;2023-05-07T00:13:03;16.30;99.90
36384;DHT22;22418;51.210;6.976;2023-05-07T00:15:34;16.30;99.90
36384;DHT22;22418;51.210;6.976;2023-05-07T00:18:04;16.40;99.90
36384;DHT22;22418;51.210;6.976;2023-05-07T00:20:35;16.40;99.90
36384;DHT22;22418;51.210;6.976;2023-05-07T00:23:05;16.40;99.90
36384;DHT22;22418;51.210;6.976;2023-05-07T00:25:36;16.40;99.90
36384;DHT22;22418;51.210;6.976;2023-05-07T00:28:06;16.40;99.90
36384;DHT22;22418;51.210;6.976;2023-05-07T00:30:37;16.30;99.90
36384;DHT22;22418;51.210;6.976;2023-05-07T00:33:07;16.30;99.90
36384;DHT22;22418;51.210;6.976;2023-05-07T00:35:38;16.30;99.90
36384;DHT22;22418;51.210;6.976;2023-05-07T00:38:09;16.30;99.90
36384;DHT22;22418;51.210;6.976;2023-05-07T00:40:39;16.30;99.90
36384;DHT22;22418;51.210;6.976;2023-05-07T00:43:10;16.30;99.90
36384;DHT22;22418;51.210;6.976;2023-05-07T00:45:40;16.30;99.90
36384;DHT22;22418;51.210;6.976;2023-05-07T00:48:11;16.30;99.90
36384;DHT22;22418;51.210;6.976;2023-05-07T00:50:43;16.30;99.90
36384;DHT22;22418;51.210;6.976;2023-05-07T00:53:14;16.30;99.90
36384;DHT22;22418;51.210;6.976;2023-05-07T00:55:45;16.30;99.90
36384;DHT22;22418;51.210;6.976;2023-05-07T00:58:16;16.20;99.90
36384;DHT22;22418;51.210;6.976;2023-05-07T01:00:46;16.10;99.90
36384;DHT22;22418;51.210;6.976;2023-05-07T01:03:17;16.10;99.90
36384;DHT22;22418;51.210;6.976;2023-05-07T01:05:48;16.10;99.90
36384;DHT22;22418;51.210;6.976;2023-05-07T01:08:18;16.10;99.90
36384;DHT22;22418;51.210;6.976;2023-05-07T01:10:49;16.10;99.90
36384;DHT22;22418;51.210;6.976;2023-05-07T01:13:20;16.10;99.90
36384;DHT22;22418;51.210;6.976;2023-05-07T01:15:51;16.10;99.90
36384;DHT22;22418;51.210;6.976;2023-05-07T01:18:22;16.20;99.90
36384;DHT22;22418;51.210;6.976;2023-05-07T01:20:54;16.20;99.90
36384;DHT22;22418;51.210;6.976;2023-05-07T01:23:27;16.10;99.90
36384;DHT22;22418;51.210;6.976;2023-05-07T01:25:58;16.20;99.90
36384;DHT22;22418;51.210;6.976;2023-05-07T01:28:28;16.20;99.90
36384;DHT22;22418;51.210;6.976;2023-05-07T01:31:03;16.20;99.90
36384;DHT22;22418;51.210;6.976;2023-05-07T01:33:35;16.10;99.90
36384;DHT22;22418;51.210;6.976;2023-05-07T01:36:07;16.10;99.90
36384;DHT22;22418;51.210;6.976;2023-05-07T01:38:39;16.10;99.90
36384;DHT22;22418;51.210;6.976;2023-05-07T01:41:12;16.10;99.90
36384;DHT22;22418;51.210;6.976;2023-05-07T01:43:43;16.00;99.90
36384;DHT22;22418;51.210;6.976;2023-05-07T01:46:15;16.00;99.90
36384;DHT22;22418;51.210;6.976;2023-05-07T01:48:46;16.00;99.90
36384;DHT22;22418;51.210;6.976;2023-05-07T01:51:16;16.00;99.90
36384;DHT22;22418;51.210;6.976;2023-05-07T01:53:47;16.00;99.90
36384;DHT22;22418;51.210;6.976;2023-05-07T01:56:21;16.00;99.90
36384;DHT22;22418;51.210;6.976;2023-05-07T01:58:51;16.00;99.90
36384;DHT22;22418;51.210;6.976;2023-05-07T02:01:22;16.00;99.90
36384;DHT22;22418;51.210;6.976;2023-05-07T02:03:53;16.00;99.90
36384;DHT22;22418;51.210;6.976;2023-05-07T02:06:24;16.00;99.90
36384;DHT22;22418;51.210;6.976;2023-05-07T02:08:54;15.90;99.90
36384;DHT22;22418;51.210;6.976;2023-05-07T02:11:25;16.00;99.90
36384;DHT22;22418;51.210;6.976;2023-05-07T02:13:56;16.00;99.90
36384;DHT22;22418;51.210;6.976;2023-05-07T02:16:26;16.00;99.90
36384;DHT22;22418;51.210;6.976;2023-05-07T02:18:57;15.90;99.90
36384;DHT22;22418;51.210;6.976;2023-05-07T02:21:28;15.90;99.90
36384;DHT22;22418;51.210;6.976;2023-05-07T02:23:59;15.80;99.90
36384;DHT22;22418;51.210;6.976;2023-05-07T02:26:29;15.80;99.90
36384;DHT22;22418;51.210;6.976;2023-05-07T02:29:00;15.70;99.90
36384;DHT22;22418;51.210;6.976;2023-05-07T02:31:30;15.70;99.90
36384;DHT22;22418;51.210;6.976;2023-05-07T02:34:01;15.70;99.90
36384;DHT22;22418;51.210;6.976;2023-05-07T02:36:32;15.80;99.90
36384;DHT22;22418;51.210;6.976;2023-05-07T02:39:03;15.80;99.90
36384;DHT22;22418;51.210;6.976;2023-05-07T02:41:34;15.80;99.90
36384;DHT22;22418;51.210;6.976;2023-05-07T02:44:04;15.80;99.90
36384;DHT22;22418;51.210;6.976;2023-05-07T02:46:35;15.80;99.90
36384;DHT22;22418;51.210;6.976;2023-05-07T02:49:05;15.80;99.90
36384;DHT22;22418;51.210;6.976;2023-05-07T02:51:36;15.70;99.90
36384;DHT22;22418;51.210;6.976;2023-05-07T02:54:07;15.70;99.90
36384;DHT22;22418;51.210;6.976;2023-05-07T02:56:37;15.70;99.90
36384;DHT22;22418;51.210;6.976;2023-05-07T02:59:08;15.60;99.90
36384;DHT22;22418;51.210;6.976;2023-05-07T03:01:38;15.60;99.90
36384;DHT22;22418;51.210;6.976;2023-05-07T03:04:09;15.60;99.90
36384;DHT22;22418;51.210;6.976;2023-05-07T03:06:40;15.50;99.90
36384;DHT22;22418;51.210;6.976;2023-05-07T03:09:11;15.50;99.90
36384;DHT22;22418;51.210;6.976;2023-05-07T03:11:42;15.50;99.90
36384;DHT22;22418;51.210;6.976;2023-05-07T03:14:15;15.50;99.90
36384;DHT22;22418;51.210;6.976;2023-05-07T03:16:45;15.40;99.90
36384;DHT22;22418;51.210;6.976;2023-05-07T03:19:16;15.40;99.90
36384;DHT22;22418;51.210;6.976;2023-05-07T03:21:47;15.40;99.90
36384;DHT22;22418;51.210;6.976;2023-05-07T03:24:17;15.40;99.90
36384;DHT22;22418;51.210;6.976;2023-05-07T03:26:48;15.40;99.90
36384;DHT22;22418;51.210;6.976;2023-05-07T03:29:18;15.40;99.90
36384;DHT22;22418;51.210;6.976;2023-05-07T03:31:50;15.40;99.90
36384;DHT22;22418;51.210;6.976;2023-05-07T03:34:20;15.30;99.90
36384;DHT22;22418;51.210;6.976;2023-05-07T03:36:52;15.40;99.90
36384;DHT22;22418;51.210;6.976;2023-05-07T03:39:22;15.40;99.90
36384;DHT22;22418;51.210;6.976;2023-05-07T03:41:53;15.30;99.90
36384;DHT22;22418;51.210;6.976;2023-05-07T03:44:24;15.30;99.90
36384;DHT22;22418;51.210;6.976;2023-05-07T03:46:54;15.30;99.90
36384;DHT22;22418;51.210;6.976;2023-05-07T03:49:25;15.20;99.90
36384;DHT22;22418;51.210;6.976;2023-05-07T03:51:56;15.20;99.90
36384;DHT22;22418;51.210;6.976;2023-05-07T03:54:26;15.10;99.90
36384;DHT22;22418;51.210;6.976;2023-05-07T03:56:57;15.10;99.90
36384;DHT22;22418;51.210;6.976;2023-05-07T03:59:28;15.10;99.90
36384;DHT22;22418;51.210;6.976;2023-05-07T04:01:58;15.10;99.90
36384;DHT22;22418;51.210;6.976;2023-05-07T04:04:29;15.10;99.90
36384;DHT22;22418;51.210;6.976;2023-05-07T04:07:03;15.10;99.90
36384;DHT22;22418;51.210;6.976;2023-05-07T04:09:33;15.10;99.90
36384;DHT22;22418;51.210;6.976;2023-05-07T04:12:04;15.10;99.90
36384;DHT22;22418;51.210;6.976;2023-05-07T04:14:35;15.00;99.90
36384;DHT22;22418;51.210;6.976;2023-05-07T04:17:05;15.10;99.90
36384;DHT22;22418;51.210;6.976;2023-05-07T04:19:37;15.10;99.90
36384;DHT22;22418;51.210;6.976;2023-05-07T04:22:09;15.10;99.90
36384;DHT22;22418;51.210;6.976;2023-05-07T04:24:40;15.00;99.90
36384;DHT22;22418;51.210;6.976;2023-05-07T04:27:10;15.10;99.90
36384;DHT22;22418;51.210;6.976;2023-05-07T04:29:41;15.20;99.90
36384;DHT22;22418;51.210;6.976;2023-05-07T04:32:13;15.30;99.90
36384;DHT22;22418;51.210;6.976;2023-05-07T04:34:43;15.30;99.90
36384;DHT22;22418;51.210;6.976;2023-05-07T04:37:14;15.50;99.90
36384;DHT22;22418;51.210;6.976;2023-05-07T04:39:44;15.50;99.90
36384;DHT22;22418;51.210;6.976;2023-05-07T04:42:18;15.50;99.90
36384;DHT22;22418;51.210;6.976;2023-05-07T04:44:53;15.60;99.90
36384;DHT22;22418;51.210;6.976;2023-05-07T04:47:23;15.60;99.90
36384;DHT22;22418;51.210;6.976;2023-05-07T04:49:54;15.80;99.90
36384;DHT22;22418;51.210;6.976;2023-05-07T04:52:25;15.80;99.90
36384;DHT22;22418;51.210;6.976;2023-05-07T04:54:55;15.90;99.90
36384;DHT22;22418;51.210;6.976;2023-05-07T04:57:26;16.00;99.90
36384;DHT22;22418;51.210;6.976;2023-05-07T04:59:57;16.10;99.90
36384;DHT22;22418;51.210;6.976;2023-05-07T05:02:28;16.10;99.90
36384;DHT22;22418;51.210;6.976;2023-05-07T05:04:58;16.20;99.90
36384;DHT22;22418;51.210;6.976;2023-05-07T05:07:29;16.20;99.90
36384;DHT22;22418;51.210;6.976;2023-05-07T05:09:59;16.30;99.90
36384;DHT22;22418;51.210;6.976;2023-05-07T05:12:30;16.40;99.90
36384;DHT22;22418;51.210;6.976;2023-05-07T05:15:01;16.50;99.90
36384;DHT22;22418;51.210;6.976;2023-05-07T05:17:31;16.60;99.90
36384;DHT22;22418;51.210;6.976;2023-05-07T05:20:03;16.50;99.90
36384;DHT22;22418;51.210;6.976;2023-05-07T05:22:34;16.60;99.90
36384;DHT22;22418;51.210;6.976;2023-05-07T05:25:05;16.70;99.90
36384;DHT22;22418;51.210;6.976;2023-05-07T05:27:35;16.90;99.90
36384;DHT22;22418;51.210;6.976;2023-05-07T05:30:06;16.90;99.90
36384;DHT22;22418;51.210;6.976;2023-05-07T05:32:37;16.90;99.90
36384;DHT22;22418;51.210;6.976;2023-05-07T05:35:08;17.00;99.90
36384;DHT22;22418;51.210;6.976;2023-05-07T05:37:38;17.00;99.90
36384;DHT22;22418;51.210;6.976;2023-05-07T05:40:09;17.10;99.90
36384;DHT22;22418;51.210;6.976;2023-05-07T05:42:40;17.10;99.90
36384;DHT22;22418;51.210;6.976;2023-05-07T05:45:10;17.20;99.90
36384;DHT22;22418;51.210;6.976;2023-05-07T05:47:41;17.20;99.90
36384;DHT22;22418;51.210;6.976;2023-05-07T05:50:12;17.20;99.90
36384;DHT22;22418;51.210;6.976;2023-05-07T05:52:42;17.10;99.90
36384;DHT22;22418;51.210;6.976;2023-05-07T05:55:13;17.20;99.90
36384;DHT22;22418;51.210;6.976;2023-05-07T05:57:43;17.30;99.90
36384;DHT22;22418;51.210;6.976;2023-05-07T06:00:14;17.50;99.90
36384;DHT22;22418;51.210;6.976;2023-05-07T06:02:45;17.60;99.90
36384;DHT22;22418;51.210;6.976;2023-05-07T06:05:17;17.60;99.90
36384;DHT22;22418;51.210;6.976;2023-05-07T06:07:48;17.60;99.90
36384;DHT22;22418;51.210;6.976;2023-05-07T06:10:19;17.60;99.90
36384;DHT22;22418;51.210;6.976;2023-05-07T06:12:49;17.50;99.90
36384;DHT22;22418;51.210;6.976;2023-05-07T06:15:20;17.40;99.90
36384;DHT22;22418;51.210;6.976;2023-05-07T06:17:51;17.40;99.90
36384;DHT22;22418;51.210;6.976;2023-05-07T06:20:21;17.30;99.90
36384;DHT22;22418;51.210;6.976;2023-05-07T06:22:52;17.30;99.90
36384;DHT22;22418;51.210;6.976;2023-05-07T06:25:22;17.50;99.90
36384;DHT22;22418;51.210;6.976;2023-05-07T06:27:53;17.40;99.90
36384;DHT22;22418;51.210;6.976;2023-05-07T06:30:23;17.30;99.90
36384;DHT22;22418;51.210;6.976;2023-05-07T06:32:54;17.50;99.90
36384;DHT22;22418;51.210;6.976;2023-05-07T06:35:25;17.50;99.90
36384;DHT22;22418;51.210;6.976;2023-05-07T06:37:55;17.60;99.90
36384;DHT22;22418;51.210;6.976;2023-05-07T06:40:26;17.60;99.90
36384;DHT22;22418;51.210;6.976;2023-05-07T06:42:57;17.70;99.90
36384;DHT22;22418;51.210;6.976;2023-05-07T06:45:27;17.80;99.90
36384;DHT22;22418;51.210;6.976;2023-05-07T06:47:58;17.90;99.90
36384;DHT22;22418;51.210;6.976;2023-05-07T06:50:28;18.00;99.90
36384;DHT22;22418;51.210;6.976;2023-05-07T06:52:59;18.10;99.90
36384;DHT22;22418;51.210;6.976;2023-05-07T06:55:29;18.20;99.90
36384;DHT22;22418;51.210;6.976;2023-05-07T06:58:00;18.40;99.90
36384;DHT22;22418;51.210;6.976;2023-05-07T07:00:31;18.60;99.90
36384;DHT22;22418;51.210;6.976;2023-05-07T07:03:03;18.80;99.90
36384;DHT22;22418;51.210;6.976;2023-05-07T07:05:33;19.00;99.90
36384;DHT22;22418;51.210;6.976;2023-05-07T07:08:04;19.10;99.90
36384;DHT22;22418;51.210;6.976;2023-05-07T07:10:35;19.10;99.90
36384;DHT22;22418;51.210;6.976;2023-05-07T07:13:05;19.20;99.90
36384;DHT22;22418;51.210;6.976;2023-05-07T07:15:36;19.20;99.90
36384;DHT22;22418;51.210;6.976;2023-05-07T07:18:07;19.30;99.90
36384;DHT22;22418;51.210;6.976;2023-05-07T07:20:37;19.60;99.90
36384;DHT22;22418;51.210;6.976;2023-05-07T07:23:08;19.90;99.90
36384;DHT22;22418;51.210;6.976;2023-05-07T07:25:38;20.10;99.90
36384;DHT22;22418;51.210;6.976;2023-05-07T07:28:09;20.40;99.90
36384;DHT22;22418;51.210;6.976;2023-05-07T07:30:40;20.80;99.90
36384;DHT22;22418;51.210;6.976;2023-05-07T07:33:11;21.20;99.90
36384;DHT22;22418;51.210;6.976;2023-05-07T07:35:42;21.80;99.90
36384;DHT22;22418;51.210;6.976;2023-05-07T07:38:12;22.10;99.90
36384;DHT22;22418;51.210;6.976;2023-05-07T07:40:43;22.50;99.90
36384;DHT22;22418;51.210;6.976;2023-05-07T07:43:14;22.80;99.90
36384;DHT22;22418;51.210;6.976;2023-05-07T07:45:45;22.80;99.90
36384;DHT22;22418;51.210;6.976;2023-05-07T07:48:16;22.70;99.90
36384;DHT22;22418;51.210;6.976;2023-05-07T07:50:49;22.80;99.90
36384;DHT22;22418;51.210;6.976;2023-05-07T07:53:20;22.70;99.90
36384;DHT22;22418;51.210;6.976;2023-05-07T07:55:51;22.70;99.90
36384;DHT22;22418;51.210;6.976;2023-05-07T07:58:21;22.50;99.90
36384;DHT22;22418;51.210;6.976;2023-05-07T08:00:52;22.40;99.90
36384;DHT22;22418;51.210;6.976;2023-05-07T08:03:24;22.30;99.90
36384;DHT22;22418;51.210;6.976;2023-05-07T08:05:55;22.10;99.90
36384;DHT22;22418;51.210;6.976;2023-05-07T08:08:25;21.90;99.90
36384;DHT22;22418;51.210;6.976;2023-05-07T08:10:56;22.10;99.90
36384;DHT22;22418;51.210;6.976;2023-05-07T08:13:27;22.40;99.90
36384;DHT22;22418;51.210;6.976;2023-05-07T08:15:57;22.70;99.90
36384;DHT22;22418;51.210;6.976;2023-05-07T08:18:28;22.90;99.90
36384;DHT22;22418;51.210;6.976;2023-05-07T08:20:59;23.10;99.90
36384;DHT22;22418;51.210;6.976;2023-05-07T08:23:30;23.00;99.90
36384;DHT22;22418;51.210;6.976;2023-05-07T08:26:00;23.00;99.90
36384;DHT22;22418;51.210;6.976;2023-05-07T08:28:31;23.10;99.90
36384;DHT22;22418;51.210;6.976;2023-05-07T08:31:01;23.30;99.90
36384;DHT22;22418;51.210;6.976;2023-05-07T08:33:32;23.50;99.90
36384;DHT22;22418;51.210;6.976;2023-05-07T08:36:03;23.60;99.90
36384;DHT22;22418;51.210;6.976;2023-05-07T08:38:33;23.80;99.90
36384;DHT22;22418;51.210;6.976;2023-05-07T08:41:04;23.80;99.90
36384;DHT22;22418;51.210;6.976;2023-05-07T08:43:38;24.10;99.90
36384;DHT22;22418;51.210;6.976;2023-05-07T08:46:12;24.40;99.90
36384;DHT22;22418;51.210;6.976;2023-05-07T08:48:51;24.80;99.90
36384;DHT22;22418;51.210;6.976;2023-05-07T08:51:22;25.20;99.10
36384;DHT22;22418;51.210;6.976;2023-05-07T08:53:52;25.00;99.00
36384;DHT22;22418;51.210;6.976;2023-05-07T08:56:23;24.90;99.70
36384;DHT22;22418;51.210;6.976;2023-05-07T08:58:53;25.00;99.90
36384;DHT22;22418;51.210;6.976;2023-05-07T09:01:27;24.60;98.90
36384;DHT22;22418;51.210;6.976;2023-05-07T09:03:57;24.40;99.00
36384;DHT22;22418;51.210;6.976;2023-05-07T09:06:28;24.30;99.30
36384;DHT22;22418;51.210;6.976;2023-05-07T09:08:59;24.20;99.90
36384;DHT22;22418;51.210;6.976;2023-05-07T09:11:31;24.30;99.40
36384;DHT22;22418;51.210;6.976;2023-05-07T09:14:02;23.80;99.30
36384;DHT22;22418;51.210;6.976;2023-05-07T09:16:33;23.80;99.50
36384;DHT22;22418;51.210;6.976;2023-05-07T09:19:03;24.10;98.80
36384;DHT22;22418;51.210;6.976;2023-05-07T09:21:34;24.20;99.20
36384;DHT22;22418;51.210;6.976;2023-05-07T09:24:05;24.40;99.20
36384;DHT22;22418;51.210;6.976;2023-05-07T09:26:36;24.40;99.50
36384;DHT22;22418;51.210;6.976;2023-05-07T09:29:07;24.40;99.20
36384;DHT22;22418;51.210;6.976;2023-05-07T09:31:38;24.40;98.50
36384;DHT22;22418;51.210;6.976;2023-05-07T09:34:08;24.40;98.70
36384;DHT22;22418;51.210;6.976;2023-05-07T09:36:39;24.30;99.20
36384;DHT22;22418;51.210;6.976;2023-05-07T09:39:10;24.30;99.60
36384;DHT22;22418;51.210;6.976;2023-05-07T09:41:45;24.20;99.80
36384;DHT22;22418;51.210;6.976;2023-05-07T09:44:15;24.10;99.90
36384;DHT22;22418;51.210;6.976;2023-05-07T09:46:50;24.10;99.90
36384;DHT22;22418;51.210;6.976;2023-05-07T09:49:28;24.10;99.90
36384;DHT22;22418;51.210;6.976;2023-05-07T09:52:01;24.30;99.90
36384;DHT22;22418;51.210;6.976;2023-05-07T09:54:33;24.50;99.90
36384;DHT22;22418;51.210;6.976;2023-05-07T09:57:05;24.60;99.90
36384;DHT22;22418;51.210;6.976;2023-05-07T09:59:37;24.80;99.00
36384;DHT22;22418;51.210;6.976;2023-05-07T10:02:09;25.00;98.20
36384;DHT22;22418;51.210;6.976;2023-05-07T10:04:40;25.10;98.30
36384;DHT22;22418;51.210;6.976;2023-05-07T10:07:13;25.00;97.90
36384;DHT22;22418;51.210;6.976;2023-05-07T10:09:44;24.70;97.90
36384;DHT22;22418;51.210;6.976;2023-05-07T10:12:17;24.40;98.10
36384;DHT22;22418;51.210;6.976;2023-05-07T10:14:50;24.10;98.50
36384;DHT22;22418;51.210;6.976;2023-05-07T10:17:20;23.60;99.00
36384;DHT22;22418;51.210;6.976;2023-05-07T10:19:54;23.30;99.00
36384;DHT22;22418;51.210;6.976;2023-05-07T10:22:26;22.90;98.80
36384;DHT22;22418;51.210;6.976;2023-05-07T10:24:59;22.60;99.70
36384;DHT22;22418;51.210;6.976;2023-05-07T10:27:33;22.50;99.40
36384;DHT22;22418;51.210;6.976;2023-05-07T10:30:20;22.40;99.90
36384;DHT22;22418;51.210;6.976;2023-05-07T10:32:56;22.40;99.60
36384;DHT22;22418;51.210;6.976;2023-05-07T10:35:41;22.70;99.60
36384;DHT22;22418;51.210;6.976;2023-05-07T10:38:13;22.60;99.40
36384;DHT22;22418;51.210;6.976;2023-05-07T10:40:43;22.70;99.60
36384;DHT22;22418;51.210;6.976;2023-05-07T10:43:14;22.70;99.70
36384;DHT22;22418;51.210;6.976;2023-05-07T10:46:11;22.70;99.70
36384;DHT22;22418;51.210;6.976;2023-05-07T10:51:31;22.30;99.90
36384;DHT22;22418;51.210;6.976;2023-05-07T10:56:43;22.20;99.90
36384;DHT22;22418;51.210;6.976;2023-05-07T11:02:02;22.30;99.90
36384;DHT22;22418;51.210;6.976;2023-05-07T11:04:34;22.30;99.90
36384;DHT22;22418;51.210;6.976;2023-05-07T11:15:12;22.40;99.90
36384;DHT22;22418;51.210;6.976;2023-05-07T11:17:57;22.20;99.90
36384;DHT22;22418;51.210;6.976;2023-05-07T11:26:05;22.60;99.90
36384;DHT22;22418;51.210;6.976;2023-05-07T11:28:42;22.70;99.90
36384;DHT22;22418;51.210;6.976;2023-05-07T11:31:13;22.60;99.90
36384;DHT22;22418;51.210;6.976;2023-05-07T11:33:44;22.60;99.90
36384;DHT22;22418;51.210;6.976;2023-05-07T11:36:15;22.30;99.90
36384;DHT22;22418;51.210;6.976;2023-05-07T11:38:46;22.20;99.90
36384;DHT22;22418;51.210;6.976;2023-05-07T11:41:17;22.10;99.90
36384;DHT22;22418;51.210;6.976;2023-05-07T11:43:56;22.00;99.90
36384;DHT22;22418;51.210;6.976;2023-05-07T11:46:28;21.60;99.90
36384;DHT22;22418;51.210;6.976;2023-05-07T11:49:00;21.40;99.90
36384;DHT22;22418;51.210;6.976;2023-05-07T11:51:31;21.20;99.90
36384;DHT22;22418;51.210;6.976;2023-05-07T11:54:04;21.20;99.90
36384;DHT22;22418;51.210;6.976;2023-05-07T11:56:38;21.10;99.90
36384;DHT22;22418;51.210;6.976;2023-05-07T11:59:09;21.10;99.90
36384;DHT22;22418;51.210;6.976;2023-05-07T12:01:45;21.10;99.90
36384;DHT22;22418;51.210;6.976;2023-05-07T12:04:19;21.00;99.90
36384;DHT22;22418;51.210;6.976;2023-05-07T12:06:54;21.10;99.90
36384;DHT22;22418;51.210;6.976;2023-05-07T12:09:26;21.10;99.90
36384;DHT22;22418;51.210;6.976;2023-05-07T12:11:56;21.20;99.90
36384;DHT22;22418;51.210;6.976;2023-05-07T12:14:27;21.30;99.90
36384;DHT22;22418;51.210;6.976;2023-05-07T12:17:00;21.30;99.90
36384;DHT22;22418;51.210;6.976;2023-05-07T12:19:34;21.40;99.90
36384;DHT22;22418;51.210;6.976;2023-05-07T12:22:07;21.50;99.90
36384;DHT22;22418;51.210;6.976;2023-05-07T12:24:44;21.50;99.90
36384;DHT22;22418;51.210;6.976;2023-05-07T12:27:16;21.40;99.90
36384;DHT22;22418;51.210;6.976;2023-05-07T12:29:47;21.30;99.90
36384;DHT22;22418;51.210;6.976;2023-05-07T12:32:20;21.40;99.90
36384;DHT22;22418;51.210;6.976;2023-05-07T12:34:51;21.30;99.90
36384;DHT22;22418;51.210;6.976;2023-05-07T12:37:24;21.10;99.90
36384;DHT22;22418;51.210;6.976;2023-05-07T12:40:08;21.20;99.90
36384;DHT22;22418;51.210;6.976;2023-05-07T12:42:40;21.20;99.90
36384;DHT22;22418;51.210;6.976;2023-05-07T12:45:15;21.20;99.90
36384;DHT22;22418;51.210;6.976;2023-05-07T12:47:47;21.30;99.90
36384;DHT22;22418;51.210;6.976;2023-05-07T12:50:17;21.20;99.90
36384;DHT22;22418;51.210;6.976;2023-05-07T12:52:48;21.20;99.90
36384;DHT22;22418;51.210;6.976;2023-05-07T12:55:19;20.90;99.90
36384;DHT22;22418;51.210;6.976;2023-05-07T12:57:50;20.90;99.90
36384;DHT22;22418;51.210;6.976;2023-05-07T13:00:39;20.90;99.90
36384;DHT22;22418;51.210;6.976;2023-05-07T13:03:11;20.80;99.90
36384;DHT22;22418;51.210;6.976;2023-05-07T13:05:41;20.70;99.90
36384;DHT22;22418;51.210;6.976;2023-05-07T13:08:12;20.70;99.90
36384;DHT22;22418;51.210;6.976;2023-05-07T13:10:42;20.60;99.90
36384;DHT22;22418;51.210;6.976;2023-05-07T13:13:13;20.70;99.90
36384;DHT22;22418;51.210;6.976;2023-05-07T13:15:43;20.70;99.90
36384;DHT22;22418;51.210;6.976;2023-05-07T13:18:14;20.60;99.90
36384;DHT22;22418;51.210;6.976;2023-05-07T13:20:45;20.50;99.90
36384;DHT22;22418;51.210;6.976;2023-05-07T13:23:15;20.30;99.90
36384;DHT22;22418;51.210;6.976;2023-05-07T13:25:46;20.20;99.90
36384;DHT22;22418;51.210;6.976;2023-05-07T13:28:16;20.10;99.90
36384;DHT22;22418;51.210;6.976;2023-05-07T13:30:47;20.10;99.90
36384;DHT22;22418;51.210;6.976;2023-05-07T13:33:18;20.00;99.90
36384;DHT22;22418;51.210;6.976;2023-05-07T13:35:49;19.90;99.90
36384;DHT22;22418;51.210;6.976;2023-05-07T13:38:19;19.90;99.90
36384;DHT22;22418;51.210;6.976;2023-05-07T13:40:50;19.90;99.90
36384;DHT22;22418;51.210;6.976;2023-05-07T13:43:20;19.90;99.90
36384;DHT22;22418;51.210;6.976;2023-05-07T13:45:51;20.00;99.90
36384;DHT22;22418;51.210;6.976;2023-05-07T13:48:21;20.00;99.90
36384;DHT22;22418;51.210;6.976;2023-05-07T13:50:52;19.90;99.90
36384;DHT22;22418;51.210;6.976;2023-05-07T13:53:23;19.90;99.90
36384;DHT22;22418;51.210;6.976;2023-05-07T13:55:53;19.80;99.90
36384;DHT22;22418;51.210;6.976;2023-05-07T13:58:24;19.70;99.90
36384;DHT22;22418;51.210;6.976;2023-05-07T14:00:54;19.40;99.90
36384;DHT22;22418;51.210;6.976;2023-05-07T14:03:25;19.10;99.90
36384;DHT22;22418;51.210;6.976;2023-05-07T14:05:55;18.90;99.90
36384;DHT22;22418;51.210;6.976;2023-05-07T14:08:28;18.70;99.90
36384;DHT22;22418;51.210;6.976;2023-05-07T14:10:58;18.50;99.90
36384;DHT22;22418;51.210;6.976;2023-05-07T14:13:30;18.40;99.90
36384;DHT22;22418;51.210;6.976;2023-05-07T14:16:01;18.40;99.90
36384;DHT22;22418;51.210;6.976;2023-05-07T14:18:31;18.40;99.90
36384;DHT22;22418;51.210;6.976;2023-05-07T14:21:04;18.40;99.90
36384;DHT22;22418;51.210;6.976;2023-05-07T14:23:36;18.30;99.90
36384;DHT22;22418;51.210;6.976;2023-05-07T14:26:07;18.30;99.90
36384;DHT22;22418;51.210;6.976;2023-05-07T14:28:37;18.30;99.90
36384;DHT22;22418;51.210;6.976;2023-05-07T14:31:09;18.40;99.90
36384;DHT22;22418;51.210;6.976;2023-05-07T14:33:40;18.50;99.90
36384;DHT22;22418;51.210;6.976;2023-05-07T14:36:11;18.50;99.90
36384;DHT22;22418;51.210;6.976;2023-05-07T14:38:41;18.60;99.90
36384;DHT22;22418;51.210;6.976;2023-05-07T14:41:12;18.60;99.90
36384;DHT22;22418;51.210;6.976;2023-05-07T14:43:42;18.60;99.90
36384;DHT22;22418;51.210;6.976;2023-05-07T14:46:14;18.60;99.90
36384;DHT22;22418;51.210;6.976;2023-05-07T14:48:45;18.50;99.90
36384;DHT22;22418;51.210;6.976;2023-05-07T14:51:16;18.40;99.90
36384;DHT22;22418;51.210;6.976;2023-05-07T14:53:47;18.30;99.90
36384;DHT22;22418;51.210;6.976;2023-05-07T14:56:17;18.00;99.90
36384;DHT22;22418;51.210;6.976;2023-05-07T14:58:48;17.90;99.90
36384;DHT22;22418;51.210;6.976;2023-05-07T15:01:20;17.80;99.90
36384;DHT22;22418;51.210;6.976;2023-05-07T15:03:51;17.80;99.90
36384;DHT22;22418;51.210;6.976;2023-05-07T15:06:21;17.60;99.90
36384;DHT22;22418;51.210;6.976;2023-05-07T15:08:52;17.60;99.90
36384;DHT22;22418;51.210;6.976;2023-05-07T15:11:23;17.50;99.90
36384;DHT22;22418;51.210;6.976;2023-05-07T15:13:53;17.50;99.90
36384;DHT22;22418;51.210;6.976;2023-05-07T15:16:24;17.50;99.90
36384;DHT22;22418;51.210;6.976;2023-05-07T15:18:55;17.40;99.90
36384;DHT22;22418;51.210;6.976;2023-05-07T15:21:25;17.40;99.90
36384;DHT22;22418;51.210;6.976;2023-05-07T15:23:57;17.40;99.90
36384;DHT22;22418;51.210;6.976;2023-05-07T15:26:27;17.30;99.90
36384;DHT22;22418;51.210;6.976;2023-05-07T15:28:58;17.30;99.90
36384;DHT22;22418;51.210;6.976;2023-05-07T15:31:28;17.30;99.90
36384;DHT22;22418;51.210;6.976;2023-05-07T15:34:00;17.30;99.90
36384;DHT22;22418;51.210;6.976;2023-05-07T15:36:30;17.30;99.90
36384;DHT22;22418;51.210;6.976;2023-05-07T15:39:01;17.30;99.90
36384;DHT22;22418;51.210;6.976;2023-05-07T15:41:33;17.30;99.90
36384;DHT22;22418;51.210;6.976;2023-05-07T15:44:04;17.30;99.90
36384;DHT22;22418;51.210;6.976;2023-05-07T15:46:35;17.40;99.90
36384;DHT22;22418;51.210;6.976;2023-05-07T15:49:05;17.50;99.90
36384;DHT22;22418;51.210;6.976;2023-05-07T15:51:37;17.60;99.90
36384;DHT22;22418;51.210;6.976;2023-05-07T15:54:08;17.60;99.90
36384;DHT22;22418;51.210;6.976;2023-05-07T15:56:38;17.60;99.90
36384;DHT22;22418;51.210;6.976;2023-05-07T15:59:09;17.60;99.90
36384;DHT22;22418;51.210;6.976;2023-05-07T16:01:42;17.60;99.90
36384;DHT22;22418;51.210;6.976;2023-05-07T16:04:14;17.70;99.90
36384;DHT22;22418;51.210;6.976;2023-05-07T16:06:44;17.70;99.90
36384;DHT22;22418;51.210;6.976;2023-05-07T16:09:16;17.70;99.90
36384;DHT22;22418;51.210;6.976;2023-05-07T16:11:47;17.80;99.90
36384;DHT22;22418;51.210;6.976;2023-05-07T16:14:18;17.80;99.90
36384;DHT22;22418;51.210;6.976;2023-05-07T16:16:49;17.90;99.90